Nearby METAR Reports

 

KPMP - Pompano Beach, Florida, USA
Distance from station: NNW 3mi, 5km
Updated: 03/01/2024 6:30pm
Mostly cloudy
Mostly cloudy
 Wind from SE
Wind: SE 13 mph , 20 km/h
Temperature: 75°F , 24°C
Dew Point: 68°F , 20°C
Humidity: 78%
Barometer: 30.18 inHg , 1022 hPa
Clouds: Mostly cloudy
Visibility: 10 miles , 16 km
Cloud details: Partly cloudy 1900 ft
Mostly cloudy 2900 ft
2024/03/01 23:30 KPMP 012330Z 13011KT 10SM SCT019 BKN029 24/20 A3018 RMK AO2 T02390200
KFXE - Ft Lauderd/Exec, Florida, USA
Distance from station: W 6mi, 9km
Updated: 03/01/2024 5:53pm
Partly cloudy
Partly cloudy
 Wind from ESE
Wind: ESE 16 mph , 26 km/h
Temperature: 75°F , 24°C
Dew Point: 70°F , 21°C
Humidity: 83%
Barometer: 30.16 inHg , 1021.3 hPa
Clouds: Partly cloudy
Visibility: 10 miles , 16 km
Cloud details: Partly cloudy 2300 ft
Partly cloudy 2900 ft
2024/03/01 22:53 KFXE 012253Z 11014KT 10SM SCT023 SCT029 24/21 A3016 RMK AO2 SLP216 T02440206
 
KFLL - Ft Lauderd/Holly, Florida, USA
Distance from station: SSW 11mi, 17km
Updated: 03/01/2024 5:53pm
Mostly cloudy
Mostly cloudy
 Wind from SE
Wind: SE 14 mph , 22 km/h
Temperature: 75°F , 24°C
Dew Point: 70°F , 21°C
Humidity: 83%
Barometer: 30.16 inHg , 1021.3 hPa
Clouds: Mostly cloudy
Visibility: 10 miles , 16 km
Cloud details: Partly cloudy 2400 ft
Mostly cloudy 25000 ft
2024/03/01 22:53 KFLL 012253Z 13012KT 10SM SCT024 BKN250 24/21 A3016 RMK AO2 SLP213 T02440206
KBCT - Boca Raton, Florida, USA
Distance from station: N 12mi, 19km
Updated: 03/01/2024 5:53pm
Partly cloudy
Partly cloudy
 Wind from SE
Wind: SE 12 mph , 19 km/h, Gust: 18 mph , 30 km/h
Temperature: 75°F , 24°C
Dew Point: 68°F , 20°C
Humidity: 78%
Barometer: 30.18 inHg , 1022 hPa
Clouds: Partly cloudy
Visibility: 10 miles , 16 km
Cloud details: Partly cloudy 2200 ft
2024/03/01 22:53 KBCT 012253Z 14010G16KT 110V180 10SM SCT022 24/20 A3018
 
KHWO - Hollywood, Florida, USA
Distance from station: SSW 17mi, 27km
Updated: 03/01/2024 6:18pm
Partly cloudy
Partly cloudy
 Wind from ESE
Wind: ESE 12 mph , 19 km/h
Temperature: 75°F , 24°C
Dew Point: 68°F , 20°C
Humidity: 78%
Barometer: 30.18 inHg , 1022 hPa
Clouds: Partly cloudy
Visibility: 10 miles , 16 km
Cloud details: Partly cloudy 2500 ft
Partly cloudy 3000 ft
2024/03/01 23:18 KHWO 012318Z AUTO 12010KT 10SM SCT025 SCT030 24/20 A3018 RMK AO2 T02440200 $
KOPF - Miami/Opa Locka, Florida, USA
Distance from station: SSW 24mi, 38km
Updated: 03/01/2024 5:53pm
Few Clouds
Few Clouds
 Wind from SE
Wind: SE 14 mph , 22 km/h
Temperature: 75°F , 24°C
Dew Point: 66°F , 19°C
Humidity: 74%
Barometer: 30.17 inHg , 1021.7 hPa
Clouds: Few Clouds
Visibility: 10 miles , 16 km
Cloud details: Few Clouds 2500 ft
2024/03/01 22:53 KOPF 012253Z 14012KT 10SM FEW025 24/19 A3017 RMK AO2 SLP217 T02440194
 
KMIA - Miami, Florida, USA
Distance from station: SSW 31mi, 50km
Updated: 03/01/2024 5:53pm
Mostly cloudy
Mostly cloudy
 Wind from SE
Wind: SE 10 mph , 17 km/h
Temperature: 75°F , 24°C
Dew Point: 66°F , 19°C
Humidity: 74%
Barometer: 30.16 inHg , 1021.3 hPa
Clouds: Mostly cloudy
Visibility: 10 miles , 16 km
Cloud details: Few Clouds 2200 ft
Partly cloudy 6500 ft
Mostly cloudy 25000 ft
2024/03/01 22:53 KMIA 012253Z 13009KT 10SM FEW022 SCT065 BKN250 24/19 A3016 RMK AO2 SLP214 T02390194 $
KPBI - West Palm Beach, Florida, USA
Distance from station: N 33mi, 52km
Updated: 03/01/2024 5:53pm
Mostly cloudy
Mostly cloudy
 Wind from SE
Wind: SE 13 mph , 20 km/h
Temperature: 75°F , 24°C
Dew Point: 68°F , 20°C
Humidity: 78%
Barometer: 30.18 inHg , 1022 hPa
Clouds: Mostly cloudy
Visibility: 10 miles , 16 km
Cloud details: Few Clouds 2200 ft
Mostly cloudy 25000 ft
2024/03/01 22:53 KPBI 012253Z 14011KT 10SM FEW022 BKN250 24/20 A3018 RMK AO2 SLP220 T02440200
 
KTMB - Miami/Tamiami, Florida, USA
Distance from station: SSW 44mi, 71km
Updated: 03/01/2024 5:53pm
Clear
Clear
 Wind from ESE
Wind: ESE 12 mph , 19 km/h
Temperature: 75°F , 24°C
Dew Point: 66°F , 19°C
Humidity: 74%
Barometer: 30.16 inHg , 1021.3 hPa
Clouds: Clear
Visibility: 10 miles , 16 km
2024/03/01 22:53 KTMB 012253Z 12010KT 10SM CLR 24/19 A3016 RMK AO2 SLP213 T02440194